createdAt,value
2018-10-12T00:00:12.590Z,14.40
2018-10-12T00:02:15.700Z,14.41
2018-10-12T00:04:18.770Z,14.35
2018-10-12T00:06:21.891Z,14.40
2018-10-12T00:08:25.206Z,14.29
2018-10-12T00:10:28.533Z,14.25
2018-10-12T00:12:31.523Z,14.17
2018-10-12T00:14:35.948Z,14.14
2018-10-12T00:16:38.979Z,14.18
2018-10-12T00:18:41.991Z,14.18
2018-10-12T00:20:45.041Z,14.15
2018-10-12T00:22:48.068Z,14.20
2018-10-12T00:24:51.564Z,14.34
2018-10-12T00:26:54.663Z,14.27
2018-10-12T00:28:59.426Z,14.41
2018-10-12T00:31:02.447Z,14.40
2018-10-12T00:33:05.545Z,14.38
2018-10-12T00:35:08.580Z,14.37
2018-10-12T00:37:11.650Z,14.39
2018-10-12T00:39:14.675Z,14.42
2018-10-12T00:41:17.717Z,14.24
2018-10-12T00:43:20.761Z,14.14
2018-10-12T00:45:23.788Z,14.27
2018-10-12T00:47:28.605Z,14.29
2018-10-12T00:49:31.641Z,14.14
2018-10-12T00:51:34.664Z,14.21
2018-10-12T00:53:37.911Z,14.13
2018-10-12T00:55:40.949Z,14.12
2018-10-12T00:57:43.974Z,14.14
2018-10-12T00:59:47.003Z,14.00
2018-10-12T01:01:50.081Z,13.98
2018-10-12T01:03:53.433Z,14.08
2018-10-12T01:05:56.446Z,13.94
2018-10-12T01:07:59.899Z,13.88
2018-10-12T01:10:03.008Z,13.82
2018-10-12T01:12:33.401Z,13.86
2018-10-12T01:14:36.442Z,13.95
2018-10-12T01:16:39.527Z,14.02
2018-10-12T01:18:42.630Z,13.95
2018-10-12T01:20:45.688Z,13.86
2018-10-12T01:22:48.712Z,13.79
2018-10-12T01:24:51.782Z,13.94
2018-10-12T01:26:54.837Z,13.85
2018-10-12T01:28:59.383Z,13.93
2018-10-12T01:31:02.661Z,13.98
2018-10-12T01:33:06.416Z,13.96
2018-10-12T01:35:09.465Z,13.87
2018-10-12T01:37:12.462Z,13.90
2018-10-12T01:39:15.481Z,13.88
2018-10-12T01:41:18.542Z,13.79
2018-10-12T01:43:21.592Z,13.67
2018-10-12T01:45:24.652Z,13.59
2018-10-12T01:47:29.374Z,13.54
2018-10-12T01:49:32.436Z,13.54
2018-10-12T01:51:35.492Z,13.53
2018-10-12T01:53:38.545Z,13.45
2018-10-12T01:55:41.847Z,13.51
2018-10-12T01:57:44.908Z,13.51
2018-10-12T01:59:47.912Z,13.63
2018-10-12T02:01:50.958Z,13.48
2018-10-12T02:03:54.071Z,13.45
2018-10-12T02:05:58.914Z,13.42
2018-10-12T02:08:01.944Z,13.43
2018-10-12T02:10:05.229Z,13.41
2018-10-12T02:12:08.267Z,13.34
2018-10-12T02:14:11.228Z,13.41
2018-10-12T02:16:14.216Z,13.38
2018-10-12T02:18:17.291Z,13.32
2018-10-12T02:20:20.301Z,13.26
2018-10-12T02:22:23.336Z,13.21
2018-10-12T02:24:26.402Z,13.05
2018-10-12T02:26:29.411Z,12.45
2018-10-12T02:28:32.482Z,12.95
2018-10-12T02:30:35.431Z,12.91
2018-10-12T02:32:38.538Z,12.65
2018-10-12T02:34:41.567Z,12.48
2018-10-12T02:36:44.602Z,12.22
2018-10-12T02:38:47.623Z,12.02
2018-10-12T02:40:50.639Z,11.95
2018-10-12T02:42:53.642Z,12.13
2018-10-12T02:44:58.405Z,12.27
2018-10-12T02:47:01.470Z,12.37
2018-10-12T02:49:04.799Z,12.24
2018-10-12T02:51:07.844Z,12.12
2018-10-12T02:53:10.920Z,12.04
2018-10-12T02:55:13.920Z,11.85
2018-10-12T02:57:16.927Z,11.81
2018-10-12T02:59:20.122Z,11.88
2018-10-12T03:01:23.163Z,11.85
2018-10-12T03:03:26.173Z,11.81
2018-10-12T03:05:31.365Z,11.94
2018-10-12T03:07:34.702Z,11.76
2018-10-12T03:09:37.717Z,11.76
2018-10-12T03:11:41.210Z,11.64
2018-10-12T03:13:44.321Z,11.46
2018-10-12T03:15:47.367Z,11.47
2018-10-12T03:17:50.424Z,11.30
2018-10-12T03:19:53.439Z,11.33
2018-10-12T03:21:58.567Z,11.44
2018-10-12T03:24:01.584Z,11.33
2018-10-12T03:26:04.585Z,11.38
2018-10-12T03:28:20.353Z,11.35
2018-10-12T03:30:23.388Z,11.45
2018-10-12T03:32:26.469Z,11.55
2018-10-12T03:34:33.348Z,11.50
2018-10-12T03:36:36.389Z,11.37
2018-10-12T03:38:39.487Z,11.34
2018-10-12T03:40:42.997Z,11.36
2018-10-12T03:42:46.078Z,11.22
2018-10-12T03:44:49.102Z,11.30
2018-10-12T03:46:52.195Z,11.20
2018-10-12T03:48:55.468Z,11.22
2018-10-12T03:51:00.251Z,11.30
2018-10-12T03:53:03.297Z,11.18
2018-10-12T03:55:06.720Z,10.97
2018-10-12T03:57:09.749Z,11.02
2018-10-12T03:59:12.794Z,11.07
2018-10-12T04:01:15.826Z,11.12
2018-10-12T04:03:18.939Z,11.12
2018-10-12T04:05:22.264Z,11.16
2018-10-12T04:07:25.301Z,11.13
2018-10-12T04:09:29.915Z,11.13
2018-10-12T04:11:32.978Z,11.21
2018-10-12T04:13:36.013Z,11.09
2018-10-12T04:15:39.063Z,11.09
2018-10-12T04:17:42.199Z,10.99
2018-10-12T04:19:45.191Z,10.81
2018-10-12T04:21:48.277Z,10.93
2018-10-12T04:23:51.276Z,11.16
2018-10-12T04:25:54.291Z,11.02
2018-10-12T04:27:58.989Z,10.72
2018-10-12T04:30:02.143Z,10.47
2018-10-12T04:32:05.208Z,10.45
2018-10-12T04:34:08.224Z,10.43
2018-10-12T04:36:11.220Z,10.31
2018-10-12T04:38:14.285Z,10.20
2018-10-12T04:41:28.167Z,10.31
2018-10-12T04:43:31.684Z,10.42
2018-10-12T04:45:34.738Z,10.53
2018-10-12T04:47:37.877Z,10.46
2018-10-12T04:49:41.004Z,10.50
2018-10-12T04:51:52.932Z,10.44
2018-10-12T04:53:56.227Z,10.48
2018-10-12T04:56:00.691Z,10.63
2018-10-12T04:58:03.775Z,10.52
2018-10-12T05:00:07.228Z,10.57
2018-10-12T05:02:10.297Z,10.58
2018-10-12T05:04:13.371Z,10.55
2018-10-12T05:06:16.825Z,10.41
2018-10-12T05:08:19.883Z,10.35
2018-10-12T05:10:22.956Z,10.26
2018-10-12T05:12:26.044Z,10.26
2018-10-12T05:14:30.708Z,10.37
2018-10-12T05:16:34.196Z,10.23
2018-10-12T05:18:37.311Z,10.18
2018-10-12T05:20:40.347Z,10.14
2018-10-12T05:22:43.338Z,10.04
2018-10-12T05:24:46.431Z,10.12
2018-10-12T05:26:49.474Z,10.19
2018-10-12T05:28:52.579Z,10.02
2018-10-12T05:30:55.730Z,10.20
2018-10-12T05:33:00.730Z,10.30
2018-10-12T05:35:03.847Z,10.21
2018-10-12T05:37:06.878Z,10.15
2018-10-12T05:39:11.781Z,9.99
2018-10-12T05:41:14.803Z,9.90
2018-10-12T05:43:17.997Z,9.90
2018-10-12T05:45:21.320Z,9.92
2018-10-12T05:47:24.375Z,9.93
2018-10-12T05:50:12.096Z,9.90
2018-10-12T05:52:15.227Z,9.94
2018-10-12T05:54:18.327Z,9.92
2018-10-12T05:56:24.695Z,9.69
2018-10-12T05:58:29.709Z,9.95
2018-10-12T06:00:32.817Z,10.24
2018-10-12T06:02:35.901Z,10.30
2018-10-12T06:04:38.896Z,10.38
2018-10-12T06:06:42.229Z,10.24
2018-10-12T06:08:45.241Z,10.15
2018-10-12T06:10:48.303Z,10.15
2018-10-12T06:12:51.449Z,10.19
2018-10-12T06:14:54.475Z,10.07
2018-10-12T06:16:58.546Z,10.38
2018-10-12T06:19:02.001Z,10.37
2018-10-12T06:21:05.059Z,10.35
2018-10-12T06:23:08.063Z,10.35
2018-10-12T06:25:11.124Z,10.31
2018-10-12T06:27:14.133Z,10.42
2018-10-12T06:29:17.142Z,10.50
2018-10-12T06:31:20.217Z,10.46
2018-10-12T06:33:23.230Z,10.57
2018-10-12T06:35:28.827Z,10.56
2018-10-12T06:37:31.850Z,10.56
2018-10-12T06:39:34.850Z,10.59
2018-10-12T06:41:38.061Z,10.75
2018-10-12T06:43:41.290Z,10.91
2018-10-12T06:45:44.306Z,11.11
2018-10-12T06:47:47.284Z,11.21
2018-10-12T06:49:50.327Z,11.38
2018-10-12T06:51:53.355Z,11.63
2018-10-12T06:53:56.484Z,11.79
2018-10-12T06:56:00.785Z,11.96
2018-10-12T06:58:03.796Z,11.96
2018-10-12T07:00:06.928Z,12.11
2018-10-12T07:02:13.769Z,12.32
2018-10-12T07:04:16.811Z,12.48
2018-10-12T07:06:19.846Z,12.64
2018-10-12T07:08:22.893Z,12.82
2018-10-12T07:10:25.917Z,13.16
2018-10-12T07:12:30.629Z,13.36
2018-10-12T07:14:34.564Z,13.54
2018-10-12T07:16:37.544Z,13.78
2018-10-12T07:18:40.574Z,14.10
2018-10-12T07:20:43.652Z,14.28
2018-10-12T07:22:46.810Z,14.57
2018-10-12T07:24:50.006Z,14.90
2018-10-12T07:26:53.002Z,15.04
2018-10-12T07:28:56.006Z,15.21
2018-10-12T07:31:00.939Z,15.41
2018-10-12T07:33:03.919Z,15.70
2018-10-12T07:35:07.002Z,15.86
2018-10-12T07:37:10.060Z,16.04
2018-10-12T07:39:13.015Z,16.08
2018-10-12T07:41:16.007Z,16.25
2018-10-12T07:43:18.964Z,16.40
2018-10-12T07:45:22.074Z,16.56
2018-10-12T07:47:25.171Z,16.64
2018-10-12T07:49:28.642Z,16.61
2018-10-12T07:51:31.822Z,16.99
2018-10-12T07:53:34.803Z,16.84
2018-10-12T07:55:37.903Z,16.98
2018-10-12T07:57:41.219Z,16.91
2018-10-12T07:59:44.942Z,17.23
2018-10-12T08:01:47.948Z,17.31
2018-10-12T08:03:50.980Z,17.17
2018-10-12T08:05:53.974Z,17.29
2018-10-12T08:07:58.182Z,17.42
2018-10-12T08:10:01.251Z,17.53
2018-10-12T08:12:04.411Z,17.89
2018-10-12T08:14:07.480Z,18.01
2018-10-12T08:16:10.534Z,18.14
2018-10-12T08:18:13.583Z,18.25
2018-10-12T08:20:16.627Z,18.40
2018-10-12T08:22:19.685Z,18.50
2018-10-12T08:24:22.651Z,18.88
2018-10-12T08:26:25.657Z,18.96
2018-10-12T08:28:30.008Z,19.13
2018-10-12T08:30:33.013Z,19.16
2018-10-12T08:32:36.174Z,19.44
2018-10-12T08:34:39.194Z,19.51
2018-10-12T08:36:42.170Z,19.71
2018-10-12T08:38:45.254Z,19.90
2018-10-12T08:40:48.541Z,20.00
2018-10-12T08:42:51.545Z,19.85
2018-10-12T08:44:54.606Z,20.07
2018-10-12T08:46:58.299Z,20.14
2018-10-12T08:49:01.575Z,20.31
2018-10-12T08:51:04.537Z,20.42
2018-10-12T08:53:07.566Z,20.54
2018-10-12T08:55:10.621Z,20.59
2018-10-12T08:57:13.610Z,20.72
2018-10-12T08:59:16.644Z,20.87
2018-10-12T09:01:19.669Z,21.07
2018-10-12T09:03:22.655Z,21.09
2018-10-12T09:05:25.631Z,21.20
2018-10-12T09:07:30.103Z,21.17
2018-10-12T09:09:33.071Z,21.23
2018-10-12T09:11:36.607Z,21.43
2018-10-12T09:13:39.610Z,21.51
2018-10-12T09:15:42.602Z,21.31
2018-10-12T09:17:45.699Z,21.24
2018-10-12T09:19:48.665Z,21.50
2018-10-12T09:21:51.739Z,21.76
2018-10-12T09:23:54.673Z,21.92
2018-10-12T09:25:59.051Z,21.99
2018-10-12T09:28:02.087Z,22.23
2018-10-12T09:30:05.148Z,22.16
2018-10-12T09:32:08.139Z,22.26
2018-10-12T09:34:11.186Z,22.53
2018-10-12T09:36:14.177Z,22.52
2018-10-12T09:38:17.273Z,22.80
2018-10-12T09:40:20.702Z,22.51
2018-10-12T09:42:24.130Z,22.87
2018-10-12T09:44:29.237Z,22.84
2018-10-12T09:46:32.306Z,22.94
2018-10-12T09:48:35.380Z,22.95
2018-10-12T09:50:38.452Z,23.11
2018-10-12T09:52:41.726Z,23.11
2018-10-12T09:54:45.090Z,23.42
2018-10-12T09:56:53.836Z,23.56
2018-10-12T09:58:58.303Z,23.82
2018-10-12T10:01:07.049Z,23.75
2018-10-12T10:03:16.259Z,23.56
2018-10-12T10:05:19.292Z,23.73
2018-10-12T10:07:22.329Z,23.93
2018-10-12T10:09:25.480Z,24.31
2018-10-12T10:11:30.379Z,24.48
2018-10-12T10:13:33.800Z,24.50
2018-10-12T10:15:36.948Z,24.73
2018-10-12T10:17:39.960Z,24.63
2018-10-12T10:19:43.007Z,24.62
2018-10-12T10:21:46.064Z,24.94
2018-10-12T10:23:49.139Z,25.16
2018-10-12T10:25:52.200Z,25.42
2018-10-12T10:27:55.256Z,25.49
2018-10-12T10:29:59.748Z,25.66
2018-10-12T10:32:02.839Z,25.64
2018-10-12T10:34:06.102Z,25.42
2018-10-12T10:36:09.484Z,25.54
2018-10-12T10:38:12.508Z,25.57
2018-10-12T10:40:15.699Z,25.94
2018-10-12T10:42:19.140Z,26.02
2018-10-12T10:44:22.189Z,25.93
2018-10-12T10:46:25.264Z,26.01
2018-10-12T10:48:29.924Z,26.11
2018-10-12T10:50:33.020Z,26.23
2018-10-12T10:52:36.035Z,26.17
2018-10-12T10:54:39.091Z,26.35
2018-10-12T10:56:42.243Z,26.46
2018-10-12T10:58:45.340Z,26.07
2018-10-12T11:00:48.389Z,26.45
2018-10-12T11:02:51.424Z,26.72
2018-10-12T11:04:54.420Z,26.65
2018-10-12T11:06:58.613Z,26.62
2018-10-12T11:09:01.655Z,26.72
2018-10-12T11:11:04.685Z,26.83
2018-10-12T11:13:08.100Z,26.88
2018-10-12T11:15:11.135Z,26.86
2018-10-12T11:17:14.181Z,26.86
2018-10-12T11:19:17.489Z,27.27
2018-10-12T11:21:20.534Z,27.48
2018-10-12T11:23:23.556Z,27.44
2018-10-12T11:25:28.025Z,27.42
2018-10-12T11:27:31.047Z,27.43
2018-10-12T11:29:35.710Z,27.38
2018-10-12T11:31:38.741Z,27.41
2018-10-12T11:33:41.810Z,27.28
2018-10-12T11:35:44.936Z,27.37
2018-10-12T11:37:47.983Z,27.27
2018-10-12T11:39:51.049Z,27.49
2018-10-12T11:41:54.082Z,27.73
2018-10-12T11:43:58.508Z,27.86
2018-10-12T11:46:01.691Z,27.47
2018-10-12T11:48:05.448Z,27.42
2018-10-12T11:50:08.486Z,27.08
2018-10-12T11:52:11.562Z,27.59
2018-10-12T11:54:14.737Z,26.80
2018-10-12T11:56:17.744Z,27.29
2018-10-12T11:58:20.816Z,27.72
2018-10-12T12:00:23.900Z,27.85
2018-10-12T12:02:28.609Z,28.15
2018-10-12T12:04:31.647Z,27.75
2018-10-12T12:06:34.713Z,27.90
2018-10-12T12:08:37.710Z,27.93
2018-10-12T12:10:41.127Z,27.95
2018-10-12T12:12:44.257Z,27.77
2018-10-12T12:14:47.368Z,27.55
2018-10-12T12:16:50.491Z,27.67
2018-10-12T12:18:54.009Z,27.96
2018-10-12T12:20:58.857Z,27.69
2018-10-12T12:23:01.914Z,27.67
2018-10-12T12:25:05.057Z,27.70
2018-10-12T12:27:08.145Z,27.95
2018-10-12T12:29:11.332Z,28.39
2018-10-12T12:31:14.352Z,28.58
2018-10-12T12:33:17.855Z,28.11
2018-10-12T12:35:21.080Z,28.16
2018-10-12T12:37:24.001Z,27.94
2018-10-12T12:39:27.732Z,27.52
2018-10-12T12:41:30.846Z,28.14
2018-10-12T12:43:33.865Z,28.68
2018-10-12T12:45:36.962Z,28.92
2018-10-12T12:47:40.070Z,28.97
2018-10-12T12:49:43.048Z,29.10
2018-10-12T12:51:46.140Z,29.16
2018-10-12T12:53:49.220Z,29.31
2018-10-12T12:55:52.209Z,29.08
2018-10-12T12:57:55.235Z,29.35
2018-10-12T12:59:59.992Z,29.32
2018-10-12T13:02:03.051Z,28.89
2018-10-12T13:04:06.108Z,28.72
2018-10-12T13:06:09.156Z,28.36
2018-10-12T13:08:12.421Z,28.89
2018-10-12T13:10:15.484Z,28.91
2018-10-12T13:12:18.561Z,28.60
2018-10-12T13:14:21.625Z,28.43
2018-10-12T13:16:24.673Z,28.15
2018-10-12T13:18:29.325Z,28.50
2018-10-12T13:20:32.711Z,28.86
2018-10-12T13:22:35.706Z,28.87
2018-10-12T13:24:38.789Z,29.00
2018-10-12T13:26:41.892Z,29.30
2018-10-12T13:28:45.026Z,29.08
2018-10-12T13:30:48.061Z,29.44
2018-10-12T13:32:51.245Z,29.63
2018-10-12T13:34:54.424Z,29.33
2018-10-12T13:36:59.361Z,29.63
2018-10-12T13:39:03.013Z,29.32
2018-10-12T13:41:06.767Z,28.98
2018-10-12T13:43:09.828Z,29.29
2018-10-12T13:45:12.840Z,29.00
2018-10-12T13:47:15.886Z,29.30
2018-10-12T13:49:18.940Z,28.73
2018-10-12T13:51:21.939Z,29.22
2018-10-12T13:53:25.028Z,29.25
2018-10-12T13:55:30.165Z,29.70
2018-10-12T13:57:33.198Z,29.33
2018-10-12T13:59:36.396Z,29.04
2018-10-12T14:01:39.466Z,28.88
2018-10-12T14:03:42.541Z,29.19
2018-10-12T14:05:45.764Z,29.40
2018-10-12T14:07:48.785Z,29.40
2018-10-12T14:09:51.824Z,29.77
2018-10-12T14:11:54.947Z,29.80
2018-10-12T14:13:59.207Z,29.89
2018-10-12T14:16:02.251Z,30.03
2018-10-12T14:18:05.542Z,30.17
2018-10-12T14:20:08.651Z,29.83
2018-10-12T14:22:11.745Z,30.03
2018-10-12T14:24:14.805Z,29.59
2018-10-12T14:26:17.893Z,29.44
2018-10-12T14:28:20.925Z,29.74
2018-10-12T14:30:23.990Z,30.11
2018-10-12T14:32:28.871Z,29.93
2018-10-12T14:34:31.951Z,29.80
2018-10-12T14:36:35.037Z,29.82
2018-10-12T14:38:38.113Z,30.23
2018-10-12T14:40:41.279Z,30.38
2018-10-12T14:42:44.368Z,30.33
2018-10-12T14:44:47.778Z,30.39
2018-10-12T14:46:51.191Z,30.61
2018-10-12T14:48:54.390Z,31.09
2018-10-12T14:50:59.121Z,31.26
2018-10-12T14:53:02.260Z,30.64
2018-10-12T14:55:06.796Z,30.49
2018-10-12T14:57:20.357Z,30.87
2018-10-12T14:59:23.438Z,31.68
2018-10-12T15:01:26.508Z,31.68
2018-10-12T15:03:29.606Z,30.93
2018-10-12T15:05:34.342Z,31.80
2018-10-12T15:07:37.397Z,32.41
2018-10-12T15:09:40.430Z,32.98
2018-10-12T15:11:43.527Z,32.77
2018-10-12T15:13:46.653Z,33.07
2018-10-12T15:15:49.800Z,33.17
2018-10-12T15:17:53.872Z,33.12
2018-10-12T15:19:57.079Z,32.96
2018-10-12T15:22:00.524Z,32.67
2018-10-12T15:24:05.676Z,31.74
2018-10-12T15:26:08.755Z,31.93
2018-10-12T15:28:11.848Z,31.18
2018-10-12T15:30:15.821Z,30.54
2018-10-12T15:32:18.904Z,30.01
2018-10-12T15:34:22.068Z,29.83
2018-10-12T15:36:25.176Z,29.45
2018-10-12T15:38:28.301Z,29.07
2018-10-12T15:40:31.474Z,28.78
2018-10-12T15:42:36.178Z,28.78
2018-10-12T15:44:39.296Z,28.54
2018-10-12T15:46:42.684Z,27.97
2018-10-12T15:48:45.779Z,27.83
2018-10-12T15:50:49.094Z,27.65
2018-10-12T15:52:52.926Z,27.51
2018-10-12T15:54:56.044Z,27.28
2018-10-12T15:56:59.639Z,27.02
2018-10-12T15:59:04.293Z,26.85
2018-10-12T16:01:07.492Z,26.72
2018-10-12T16:03:10.627Z,26.64
2018-10-12T16:05:13.751Z,26.46
2018-10-12T16:07:17.373Z,26.40
2018-10-12T16:09:20.854Z,26.22
2018-10-12T16:11:24.281Z,26.11
2018-10-12T16:13:27.650Z,25.83
2018-10-12T16:15:30.752Z,25.68
2018-10-12T16:17:35.459Z,25.61
2018-10-12T16:19:38.573Z,25.52
2018-10-12T16:21:41.599Z,25.57
2018-10-12T16:23:48.601Z,25.41
2018-10-12T16:26:08.975Z,25.14
2018-10-12T16:28:12.308Z,25.10
2018-10-12T16:30:15.635Z,24.98
2018-10-12T16:32:18.710Z,24.90
2018-10-12T16:34:21.773Z,24.70
2018-10-12T16:36:25.013Z,24.53
2018-10-12T16:38:27.955Z,24.28
2018-10-12T16:40:31.040Z,24.08
2018-10-12T16:42:36.183Z,23.85
2018-10-12T16:44:39.280Z,23.81
2018-10-12T16:46:42.366Z,23.65
2018-10-12T16:48:45.573Z,23.55
2018-10-12T16:50:48.686Z,23.56
2018-10-12T16:52:52.059Z,23.48
2018-10-12T16:54:55.289Z,23.48
2018-10-12T16:56:58.567Z,23.21
2018-10-12T16:59:01.705Z,23.55
2018-10-12T17:01:06.837Z,23.59
2018-10-12T17:03:09.941Z,23.38
2018-10-12T17:05:13.580Z,23.23
2018-10-12T17:07:16.621Z,22.69
2018-10-12T17:09:19.697Z,22.49
2018-10-12T17:11:22.731Z,22.34
2018-10-12T17:13:25.834Z,22.17
2018-10-12T17:15:29.909Z,21.91
2018-10-12T17:17:34.847Z,21.74
2018-10-12T17:19:37.940Z,21.68
2018-10-12T17:21:41.037Z,21.57
2018-10-12T17:23:44.475Z,21.52
2018-10-12T17:25:47.889Z,21.29
2018-10-12T17:27:51.026Z,21.37
2018-10-12T17:29:54.050Z,21.23
2018-10-12T17:31:57.130Z,21.11
2018-10-12T17:34:00.188Z,20.98
2018-10-12T17:36:04.915Z,21.04
2018-10-12T17:38:07.929Z,21.08
2018-10-12T17:40:11.477Z,20.95
2018-10-12T17:42:15.917Z,20.74
2018-10-12T17:44:18.971Z,20.75
2018-10-12T17:46:22.052Z,20.70
2018-10-12T17:48:25.121Z,20.61
2018-10-12T17:50:28.212Z,20.49
2018-10-12T17:52:31.309Z,20.41
2018-10-12T17:54:36.291Z,20.31
2018-10-12T17:56:40.244Z,20.27
2018-10-12T17:58:43.292Z,20.21
2018-10-12T18:00:46.329Z,20.16
2018-10-12T18:02:49.433Z,20.07
2018-10-12T18:04:52.530Z,19.97
2018-10-12T18:06:55.632Z,19.93
2018-10-12T18:08:58.844Z,19.84
2018-10-12T18:11:01.851Z,19.75
2018-10-12T18:13:06.617Z,19.78
2018-10-12T18:15:11.393Z,19.72
2018-10-12T18:17:14.525Z,19.63
2018-10-12T18:19:18.144Z,19.50
2018-10-12T18:21:21.245Z,19.49
2018-10-12T18:23:24.313Z,19.51
2018-10-12T18:25:27.406Z,19.42
2018-10-12T18:27:30.457Z,19.37
2018-10-12T18:29:34.884Z,19.29
2018-10-12T18:31:38.400Z,19.14
2018-10-12T18:33:41.462Z,19.05
2018-10-12T18:35:44.609Z,19.03
2018-10-12T18:37:47.880Z,19.09
2018-10-12T18:39:50.965Z,19.10
2018-10-12T18:41:54.101Z,19.04
2018-10-12T18:43:57.403Z,19.14
2018-10-12T18:46:00.622Z,19.27
2018-10-12T18:48:05.495Z,19.16
2018-10-12T18:50:08.483Z,18.90
2018-10-12T18:52:11.605Z,18.87
2018-10-12T18:54:14.888Z,18.68
2018-10-12T18:56:30.078Z,18.44
2018-10-12T18:58:34.654Z,18.31
2018-10-12T19:00:37.685Z,18.42
2018-10-12T19:02:40.768Z,18.54
2018-10-12T19:04:43.904Z,18.42
2018-10-12T19:06:47.014Z,18.32
2018-10-12T19:08:50.030Z,18.28
2018-10-12T19:10:53.178Z,18.05
2018-10-12T19:12:56.344Z,17.92
2018-10-12T19:14:59.436Z,17.77
2018-10-12T19:17:04.004Z,17.67
2018-10-12T19:19:07.426Z,17.66
2018-10-12T19:21:10.468Z,17.66
2018-10-12T19:23:13.526Z,17.68
2018-10-12T19:25:16.628Z,17.72
2018-10-12T19:27:19.742Z,17.67
2018-10-12T19:29:22.792Z,17.60
2018-10-12T19:31:26.017Z,17.56
2018-10-12T19:33:28.992Z,17.49
2018-10-12T19:35:32.112Z,17.47
2018-10-12T19:37:37.332Z,17.47
2018-10-12T19:39:40.488Z,17.52
2018-10-12T19:41:43.497Z,17.52
2018-10-12T19:43:46.541Z,17.50
2018-10-12T19:45:49.610Z,17.54
2018-10-12T19:47:52.693Z,17.55
2018-10-12T19:49:55.848Z,17.56
2018-10-12T19:51:58.993Z,17.54
2018-10-12T19:54:02.052Z,17.62
2018-10-12T19:56:07.845Z,17.58
2018-10-12T19:58:10.943Z,17.54
2018-10-12T20:00:13.973Z,17.49
2018-10-12T20:02:17.045Z,17.46
2018-10-12T20:04:20.101Z,17.39
2018-10-12T20:06:23.551Z,17.48
2018-10-12T20:08:26.619Z,17.52
2018-10-12T20:10:29.794Z,17.44
2018-10-12T20:12:34.577Z,17.45
2018-10-12T20:14:37.640Z,17.39
2018-10-12T20:16:49.106Z,17.29
2018-10-12T20:18:52.524Z,17.27
2018-10-12T20:20:55.579Z,17.17
2018-10-12T20:22:58.633Z,17.02
2018-10-12T20:25:01.726Z,17.19
2018-10-12T20:27:06.401Z,17.14
2018-10-12T20:29:09.501Z,17.34
2018-10-12T20:31:12.563Z,17.08
2018-10-12T20:33:15.613Z,17.04
2018-10-12T20:35:18.702Z,16.95
2018-10-12T20:37:34.900Z,16.63
2018-10-12T20:39:38.026Z,16.59
2018-10-12T20:41:41.112Z,16.47
2018-10-12T20:43:44.205Z,16.41
2018-10-12T20:45:47.380Z,16.39
2018-10-12T20:47:50.549Z,16.33
2018-10-12T20:49:53.615Z,16.32
2018-10-12T20:51:56.687Z,16.17
2018-10-12T20:53:59.706Z,16.36
2018-10-12T20:56:04.467Z,16.41
2018-10-12T20:58:13.270Z,16.15
2018-10-12T21:00:17.899Z,16.00
2018-10-12T21:02:20.977Z,15.95
2018-10-12T21:04:24.055Z,15.84
2018-10-12T21:06:27.119Z,15.81
2018-10-12T21:08:30.151Z,15.66
2018-10-12T21:10:34.750Z,15.55
2018-10-12T21:12:38.299Z,15.55
2018-10-12T21:14:41.327Z,15.52
2018-10-12T21:16:44.407Z,15.58
2018-10-12T21:18:47.800Z,15.51
2018-10-12T21:20:50.828Z,15.42
2018-10-12T21:22:53.863Z,15.42
2018-10-12T21:24:56.951Z,15.38
2018-10-12T21:27:00.068Z,15.26
2018-10-12T21:29:04.793Z,15.22
2018-10-12T21:31:07.844Z,15.16
2018-10-12T21:33:10.928Z,15.09
2018-10-12T21:35:13.989Z,15.26
2018-10-12T21:37:17.051Z,15.22
2018-10-12T21:39:20.176Z,15.17
2018-10-12T21:41:23.249Z,15.04
2018-10-12T21:43:26.278Z,14.94
2018-10-12T21:45:29.338Z,14.93
2018-10-12T21:47:32.416Z,14.93
2018-10-12T21:49:37.282Z,14.81
2018-10-12T21:51:40.488Z,14.78
2018-10-12T21:53:43.579Z,14.95
2018-10-12T21:55:46.648Z,15.23
2018-10-12T21:57:49.717Z,15.15
2018-10-12T21:59:52.811Z,14.94
2018-10-12T22:01:55.975Z,14.78
2018-10-12T22:03:59.042Z,14.62
2018-10-12T22:06:02.088Z,14.60
2018-10-12T22:08:06.699Z,14.55
2018-10-12T22:10:09.736Z,14.49
2018-10-12T22:12:12.795Z,14.46
2018-10-12T22:14:15.887Z,14.43
2018-10-12T22:16:18.960Z,14.36
2018-10-12T22:18:22.032Z,14.28
2018-10-12T22:20:25.149Z,14.23
2018-10-12T22:22:28.224Z,14.22
2018-10-12T22:24:31.282Z,14.21
2018-10-12T22:26:36.151Z,14.22
2018-10-12T22:28:39.186Z,14.23
2018-10-12T22:30:42.245Z,14.12
2018-10-12T22:32:45.425Z,14.09
2018-10-12T22:34:48.488Z,14.14
2018-10-12T22:36:51.565Z,14.14
2018-10-12T22:38:54.864Z,14.17
2018-10-12T22:40:57.973Z,14.12
2018-10-12T22:43:01.057Z,14.08
2018-10-12T22:45:06.151Z,14.04
2018-10-12T22:47:09.927Z,14.03
2018-10-12T22:49:13.086Z,14.03
2018-10-12T22:51:16.373Z,14.01
2018-10-12T22:53:19.434Z,14.00
2018-10-12T22:55:22.485Z,13.92
2018-10-12T22:57:25.628Z,13.84
2018-10-12T22:59:28.698Z,13.86
2018-10-12T23:01:31.774Z,13.78
2018-10-12T23:03:36.601Z,13.73
2018-10-12T23:05:40.734Z,13.77
2018-10-12T23:07:43.809Z,13.92
2018-10-12T23:09:46.953Z,13.83
2018-10-12T23:11:50.017Z,13.85
2018-10-12T23:13:53.071Z,13.68
2018-10-12T23:15:56.376Z,13.52
2018-10-12T23:17:59.490Z,13.43
2018-10-12T23:20:03.555Z,13.49
2018-10-12T23:22:07.385Z,13.43
2018-10-12T23:24:10.440Z,13.36
2018-10-12T23:26:13.560Z,13.39
2018-10-12T23:28:16.648Z,13.31
2018-10-12T23:30:19.728Z,13.26
2018-10-12T23:32:22.805Z,13.30
2018-10-12T23:34:25.883Z,13.38
2018-10-12T23:36:29.309Z,13.44
2018-10-12T23:38:32.384Z,13.43
2018-10-12T23:40:37.053Z,13.45
2018-10-12T23:42:40.148Z,13.50
2018-10-12T23:44:43.509Z,13.51
2018-10-12T23:46:46.695Z,13.52
2018-10-12T23:48:49.761Z,13.40
2018-10-12T23:50:52.888Z,13.46
2018-10-12T23:52:55.971Z,13.40
2018-10-12T23:54:59.079Z,13.43
2018-10-12T23:57:02.137Z,13.44
2018-10-12T23:59:06.919Z,13.44
